sensor_id;sensor_type;location;lat;lon;timestamp;pressure;altitude;pressure_sealevel;temperature;humidity
51972;BME280;37991;49.662;10.060;2022-08-25T00:01:32;99527.91;;;16.83;80.00
51972;BME280;37991;49.662;10.060;2022-08-25T00:04:00;99529.84;;;16.81;80.39
51972;BME280;37991;49.662;10.060;2022-08-25T00:06:27;99527.06;;;16.72;80.52
51972;BME280;37991;49.662;10.060;2022-08-25T00:08:52;99525.81;;;16.67;80.87
51972;BME280;37991;49.662;10.060;2022-08-25T00:11:23;99517.16;;;16.65;80.65
51972;BME280;37991;49.662;10.060;2022-08-25T00:13:52;99513.31;;;16.59;81.03
51972;BME280;37991;49.662;10.060;2022-08-25T00:16:19;99524.28;;;16.64;80.97
51972;BME280;37991;49.662;10.060;2022-08-25T00:18:47;99518.97;;;16.64;80.96
51972;BME280;37991;49.662;10.060;2022-08-25T00:21:14;99525.09;;;16.65;80.87
51972;BME280;37991;49.662;10.060;2022-08-25T00:23:41;99524.44;;;16.63;81.24
51972;BME280;37991;49.662;10.060;2022-08-25T00:26:08;99526.94;;;16.55;81.36
51972;BME280;37991;49.662;10.060;2022-08-25T00:28:33;99519.00;;;16.55;81.36
51972;BME280;37991;49.662;10.060;2022-08-25T00:31:00;99526.09;;;16.54;81.30
51972;BME280;37991;49.662;10.060;2022-08-25T00:33:26;99532.94;;;16.47;81.57
51972;BME280;37991;49.662;10.060;2022-08-25T00:35:52;99534.31;;;16.41;81.52
51972;BME280;37991;49.662;10.060;2022-08-25T00:38:19;99527.94;;;16.34;81.74
51972;BME280;37991;49.662;10.060;2022-08-25T00:40:45;99533.22;;;16.34;81.95
51972;BME280;37991;49.662;10.060;2022-08-25T00:43:11;99533.78;;;16.28;82.18
51972;BME280;37991;49.662;10.060;2022-08-25T00:45:37;99530.44;;;16.26;82.34
51972;BME280;37991;49.662;10.060;2022-08-25T00:48:03;99542.38;;;16.20;83.07
51972;BME280;37991;49.662;10.060;2022-08-25T00:50:30;99533.63;;;16.20;82.91
51972;BME280;37991;49.662;10.060;2022-08-25T00:53:02;99536.53;;;16.17;83.13
51972;BME280;37991;49.662;10.060;2022-08-25T00:55:30;99533.06;;;16.16;83.07
51972;BME280;37991;49.662;10.060;2022-08-25T00:58:12;99533.34;;;16.13;83.33
51972;BME280;37991;49.662;10.060;2022-08-25T01:00:44;99531.13;;;16.18;82.87
51972;BME280;37991;49.662;10.060;2022-08-25T01:03:10;99528.22;;;16.12;83.17
51972;BME280;37991;49.662;10.060;2022-08-25T01:05:36;99525.00;;;16.08;83.29
51972;BME280;37991;49.662;10.060;2022-08-25T01:08:02;99517.91;;;15.99;83.48
51972;BME280;37991;49.662;10.060;2022-08-25T01:10:30;99519.69;;;15.98;83.35
51972;BME280;37991;49.662;10.060;2022-08-25T01:13:02;99514.00;;;15.93;83.65
51972;BME280;37991;49.662;10.060;2022-08-25T01:15:30;99512.63;;;15.89;83.91
51972;BME280;37991;49.662;10.060;2022-08-25T01:17:57;99510.66;;;15.91;84.08
51972;BME280;37991;49.662;10.060;2022-08-25T01:20:24;99518.03;;;15.88;84.21
51972;BME280;37991;49.662;10.060;2022-08-25T01:22:52;99508.72;;;15.93;83.74
51972;BME280;37991;49.662;10.060;2022-08-25T01:28:04;99508.97;;;15.80;84.51
51972;BME280;37991;49.662;10.060;2022-08-25T01:30:30;99505.63;;;15.78;84.74
51972;BME280;37991;49.662;10.060;2022-08-25T01:32:56;99508.16;;;15.80;84.96
51972;BME280;37991;49.662;10.060;2022-08-25T01:35:21;99508.28;;;15.78;84.70
51972;BME280;37991;49.662;10.060;2022-08-25T01:37:46;99499.78;;;15.75;85.01
51972;BME280;37991;49.662;10.060;2022-08-25T01:40:12;99503.53;;;15.82;84.53
51972;BME280;37991;49.662;10.060;2022-08-25T01:45:35;99502.03;;;15.70;85.21
51972;BME280;37991;49.662;10.060;2022-08-25T01:48:01;99498.06;;;15.64;85.49
51972;BME280;37991;49.662;10.060;2022-08-25T01:50:27;99507.22;;;15.60;85.73
51972;BME280;37991;49.662;10.060;2022-08-25T01:53:23;99510.44;;;15.64;85.46
51972;BME280;37991;49.662;10.060;2022-08-25T01:55:50;99503.63;;;15.61;85.70
51972;BME280;37991;49.662;10.060;2022-08-25T01:58:24;99507.09;;;15.62;85.66
51972;BME280;37991;49.662;10.060;2022-08-25T02:00:53;99499.72;;;15.55;85.84
51972;BME280;37991;49.662;10.060;2022-08-25T02:03:20;99497.75;;;15.48;86.46
51972;BME280;37991;49.662;10.060;2022-08-25T02:05:46;99497.16;;;15.44;86.57
51972;BME280;37991;49.662;10.060;2022-08-25T02:08:11;99495.25;;;15.46;86.40
51972;BME280;37991;49.662;10.060;2022-08-25T02:10:38;99491.31;;;15.41;86.44
51972;BME280;37991;49.662;10.060;2022-08-25T02:13:05;99492.13;;;15.31;86.99
51972;BME280;37991;49.662;10.060;2022-08-25T02:15:31;99493.81;;;15.32;86.92
51972;BME280;37991;49.662;10.060;2022-08-25T02:17:57;99487.41;;;15.25;87.44
51972;BME280;37991;49.662;10.060;2022-08-25T02:20:23;99496.53;;;15.21;87.63
51972;BME280;37991;49.662;10.060;2022-08-25T02:22:50;99498.25;;;15.22;87.57
51972;BME280;37991;49.662;10.060;2022-08-25T02:25:16;99488.25;;;15.26;87.20
51972;BME280;37991;49.662;10.060;2022-08-25T02:27:42;99486.00;;;15.21;87.17
51972;BME280;37991;49.662;10.060;2022-08-25T02:30:08;99490.03;;;15.16;87.75
51972;BME280;37991;49.662;10.060;2022-08-25T02:32:33;99483.88;;;15.15;87.65
51972;BME280;37991;49.662;10.060;2022-08-25T02:34:59;99484.75;;;15.16;87.18
51972;BME280;37991;49.662;10.060;2022-08-25T02:37:24;99482.09;;;15.16;87.26
51972;BME280;37991;49.662;10.060;2022-08-25T02:39:49;99484.56;;;15.07;87.87
51972;BME280;37991;49.662;10.060;2022-08-25T02:42:15;99487.47;;;15.04;88.08
51972;BME280;37991;49.662;10.060;2022-08-25T02:44:40;99478.16;;;15.00;88.06
51972;BME280;37991;49.662;10.060;2022-08-25T02:47:05;99484.78;;;14.95;88.18
51972;BME280;37991;49.662;10.060;2022-08-25T02:49:31;99483.22;;;14.92;88.14
51972;BME280;37991;49.662;10.060;2022-08-25T02:51:57;99476.41;;;14.89;88.46
51972;BME280;37991;49.662;10.060;2022-08-25T02:54:24;99475.00;;;14.85;88.47
51972;BME280;37991;49.662;10.060;2022-08-25T02:56:50;99471.53;;;14.85;88.36
51972;BME280;37991;49.662;10.060;2022-08-25T02:59:16;99480.28;;;14.85;88.25
51972;BME280;37991;49.662;10.060;2022-08-25T03:01:42;99477.53;;;14.87;88.21
51972;BME280;37991;49.662;10.060;2022-08-25T03:04:08;99486.13;;;14.89;87.84
51972;BME280;37991;49.662;10.060;2022-08-25T03:06:34;99478.22;;;14.89;88.07
51972;BME280;37991;49.662;10.060;2022-08-25T03:08:59;99479.47;;;14.85;87.93
51972;BME280;37991;49.662;10.060;2022-08-25T03:11:25;99481.13;;;14.86;87.95
51972;BME280;37991;49.662;10.060;2022-08-25T03:13:51;99485.81;;;14.82;88.10
51972;BME280;37991;49.662;10.060;2022-08-25T03:16:18;99483.19;;;14.82;88.43
51972;BME280;37991;49.662;10.060;2022-08-25T03:18:44;99484.16;;;14.81;88.34
51972;BME280;37991;49.662;10.060;2022-08-25T03:21:11;99485.41;;;14.77;88.48
51972;BME280;37991;49.662;10.060;2022-08-25T03:23:36;99483.03;;;14.74;88.74
51972;BME280;37991;49.662;10.060;2022-08-25T03:26:02;99472.59;;;14.73;88.79
51972;BME280;37991;49.662;10.060;2022-08-25T03:28:46;99481.00;;;14.67;88.67
51972;BME280;37991;49.662;10.060;2022-08-25T03:31:12;99475.31;;;14.61;89.12
51972;BME280;37991;49.662;10.060;2022-08-25T03:33:37;99473.06;;;14.57;89.28
51972;BME280;37991;49.662;10.060;2022-08-25T03:36:04;99471.50;;;14.54;89.15
51972;BME280;37991;49.662;10.060;2022-08-25T03:38:29;99470.06;;;14.50;89.57
51972;BME280;37991;49.662;10.060;2022-08-25T03:40:55;99465.66;;;14.51;89.22
51972;BME280;37991;49.662;10.060;2022-08-25T03:43:21;99466.97;;;14.45;89.95
51972;BME280;37991;49.662;10.060;2022-08-25T03:45:46;99460.44;;;14.39;90.03
51972;BME280;37991;49.662;10.060;2022-08-25T03:48:13;99458.06;;;14.36;90.10
51972;BME280;37991;49.662;10.060;2022-08-25T03:50:50;99455.69;;;14.33;90.35
51972;BME280;37991;49.662;10.060;2022-08-25T03:53:16;99451.88;;;14.26;90.63
51972;BME280;37991;49.662;10.060;2022-08-25T03:55:41;99453.56;;;14.27;90.88
51972;BME280;37991;49.662;10.060;2022-08-25T03:58:07;99454.59;;;14.36;90.37
51972;BME280;37991;49.662;10.060;2022-08-25T04:00:32;99459.97;;;14.34;90.23
51972;BME280;37991;49.662;10.060;2022-08-25T04:02:58;99466.66;;;14.38;90.29
51972;BME280;37991;49.662;10.060;2022-08-25T04:05:23;99472.06;;;14.37;90.38
51972;BME280;37991;49.662;10.060;2022-08-25T04:07:48;99472.06;;;14.37;90.26
51972;BME280;37991;49.662;10.060;2022-08-25T04:10:14;99467.78;;;14.36;90.14
51972;BME280;37991;49.662;10.060;2022-08-25T04:12:39;99466.06;;;14.35;89.93
51972;BME280;37991;49.662;10.060;2022-08-25T04:15:06;99462.75;;;14.33;90.45
51972;BME280;37991;49.662;10.060;2022-08-25T04:17:32;99468.84;;;14.33;90.70
51972;BME280;37991;49.662;10.060;2022-08-25T04:19:57;99466.59;;;14.29;90.52
51972;BME280;37991;49.662;10.060;2022-08-25T04:22:23;99467.81;;;14.25;90.90
51972;BME280;37991;49.662;10.060;2022-08-25T04:24:48;99473.09;;;14.25;90.40
51972;BME280;37991;49.662;10.060;2022-08-25T04:27:14;99472.25;;;14.24;90.55
51972;BME280;37991;49.662;10.060;2022-08-25T04:29:39;99476.22;;;14.18;90.40
51972;BME280;37991;49.662;10.060;2022-08-25T04:32:05;99477.06;;;14.19;90.13
51972;BME280;37991;49.662;10.060;2022-08-25T04:34:30;99478.38;;;14.13;90.31
51972;BME280;37991;49.662;10.060;2022-08-25T04:36:57;99479.13;;;14.15;90.22
51972;BME280;37991;49.662;10.060;2022-08-25T04:39:23;99474.81;;;14.14;90.22
51972;BME280;37991;49.662;10.060;2022-08-25T04:41:49;99463.81;;;14.09;90.51
51972;BME280;37991;49.662;10.060;2022-08-25T04:44:14;99465.38;;;14.12;90.03
51972;BME280;37991;49.662;10.060;2022-08-25T04:46:40;99464.28;;;14.14;90.04
51972;BME280;37991;49.662;10.060;2022-08-25T04:49:06;99463.69;;;14.11;90.42
51972;BME280;37991;49.662;10.060;2022-08-25T04:51:37;99457.59;;;14.10;90.63
51972;BME280;37991;49.662;10.060;2022-08-25T04:54:07;99460.91;;;14.12;90.75
51972;BME280;37991;49.662;10.060;2022-08-25T04:56:33;99454.97;;;14.10;91.03
51972;BME280;37991;49.662;10.060;2022-08-25T04:59:08;99457.97;;;14.06;91.49
51972;BME280;37991;49.662;10.060;2022-08-25T05:01:34;99452.34;;;14.10;91.04
51972;BME280;37991;49.662;10.060;2022-08-25T05:04:01;99456.63;;;14.11;91.07
51972;BME280;37991;49.662;10.060;2022-08-25T05:06:28;99453.03;;;14.12;91.38
51972;BME280;37991;49.662;10.060;2022-08-25T05:08:54;99453.41;;;14.08;92.23
51972;BME280;37991;49.662;10.060;2022-08-25T05:11:20;99449.94;;;14.07;92.11
51972;BME280;37991;49.662;10.060;2022-08-25T05:13:48;99448.00;;;14.09;92.14
51972;BME280;37991;49.662;10.060;2022-08-25T05:16:13;99456.16;;;14.06;92.58
51972;BME280;37991;49.662;10.060;2022-08-25T05:18:39;99447.06;;;14.10;92.44
51972;BME280;37991;49.662;10.060;2022-08-25T05:21:12;99453.75;;;14.14;92.34
51972;BME280;37991;49.662;10.060;2022-08-25T05:23:39;99463.06;;;14.18;92.34
51972;BME280;37991;49.662;10.060;2022-08-25T05:26:07;99462.78;;;14.22;92.61
51972;BME280;37991;49.662;10.060;2022-08-25T05:28:35;99470.69;;;14.22;92.38
51972;BME280;37991;49.662;10.060;2022-08-25T05:31:02;99474.75;;;14.26;92.26
51972;BME280;37991;49.662;10.060;2022-08-25T05:33:30;99470.91;;;14.30;92.33
51972;BME280;37991;49.662;10.060;2022-08-25T05:35:56;99469.78;;;14.32;92.38
51972;BME280;37991;49.662;10.060;2022-08-25T05:38:21;99461.63;;;14.35;92.17
51972;BME280;37991;49.662;10.060;2022-08-25T05:40:47;99458.16;;;14.35;92.52
51972;BME280;37991;49.662;10.060;2022-08-25T05:43:15;99464.16;;;14.37;92.91
51972;BME280;37991;49.662;10.060;2022-08-25T05:45:41;99466.97;;;14.45;92.88
51972;BME280;37991;49.662;10.060;2022-08-25T05:48:06;99469.00;;;14.53;93.13
51972;BME280;37991;49.662;10.060;2022-08-25T05:50:31;99471.97;;;14.59;92.93
51972;BME280;37991;49.662;10.060;2022-08-25T05:52:57;99474.91;;;14.66;93.21
51972;BME280;37991;49.662;10.060;2022-08-25T05:55:22;99474.25;;;14.74;93.03
51972;BME280;37991;49.662;10.060;2022-08-25T05:57:48;99469.03;;;14.83;93.02
51972;BME280;37991;49.662;10.060;2022-08-25T06:00:13;99460.59;;;14.89;92.95
51972;BME280;37991;49.662;10.060;2022-08-25T06:02:39;99458.97;;;14.98;93.75
51972;BME280;37991;49.662;10.060;2022-08-25T06:05:09;99460.94;;;15.06;93.60
51972;BME280;37991;49.662;10.060;2022-08-25T06:07:35;99463.91;;;15.13;94.32
51972;BME280;37991;49.662;10.060;2022-08-25T06:10:03;99463.94;;;15.22;94.51
51972;BME280;37991;49.662;10.060;2022-08-25T06:12:28;99458.94;;;15.29;94.33
51972;BME280;37991;49.662;10.060;2022-08-25T06:14:56;99454.25;;;15.42;94.26
51972;BME280;37991;49.662;10.060;2022-08-25T06:17:21;99455.81;;;15.54;93.98
51972;BME280;37991;49.662;10.060;2022-08-25T06:19:47;99455.00;;;15.64;94.74
51972;BME280;37991;49.662;10.060;2022-08-25T06:22:12;99448.91;;;15.73;94.34
51972;BME280;37991;49.662;10.060;2022-08-25T06:24:37;99441.69;;;15.85;94.86
51972;BME280;37991;49.662;10.060;2022-08-25T06:27:03;99449.50;;;15.96;95.20
51972;BME280;37991;49.662;10.060;2022-08-25T06:29:28;99437.09;;;16.06;95.13
51972;BME280;37991;49.662;10.060;2022-08-25T06:31:54;99433.63;;;16.15;95.31
51972;BME280;37991;49.662;10.060;2022-08-25T06:34:19;99435.00;;;16.29;95.42
51972;BME280;37991;49.662;10.060;2022-08-25T06:36:45;99436.50;;;16.41;95.48
51972;BME280;37991;49.662;10.060;2022-08-25T06:39:11;99430.22;;;16.52;96.15
51972;BME280;37991;49.662;10.060;2022-08-25T06:41:36;99425.44;;;16.65;95.91
51972;BME280;37991;49.662;10.060;2022-08-25T06:44:02;99428.50;;;16.80;95.75
51972;BME280;37991;49.662;10.060;2022-08-25T06:46:28;99432.03;;;16.99;95.25
51972;BME280;37991;49.662;10.060;2022-08-25T06:48:56;99432.72;;;17.28;93.88
51972;BME280;37991;49.662;10.060;2022-08-25T06:51:23;99430.28;;;17.62;91.85
51972;BME280;37991;49.662;10.060;2022-08-25T06:53:49;99425.31;;;17.95;90.36
51972;BME280;37991;49.662;10.060;2022-08-25T06:56:17;99427.28;;;18.37;88.40
51972;BME280;37991;49.662;10.060;2022-08-25T06:58:43;99419.06;;;19.00;82.13
51972;BME280;37991;49.662;10.060;2022-08-25T07:01:17;99422.88;;;19.48;83.95
51972;BME280;37991;49.662;10.060;2022-08-25T07:03:48;99415.16;;;19.96;77.46
51972;BME280;37991;49.662;10.060;2022-08-25T07:06:15;99420.78;;;20.50;80.28
51972;BME280;37991;49.662;10.060;2022-08-25T07:08:40;99422.88;;;20.79;75.93
51972;BME280;37991;49.662;10.060;2022-08-25T07:11:09;99421.31;;;21.01;75.00
51972;BME280;37991;49.662;10.060;2022-08-25T07:13:35;99416.53;;;21.36;76.72
51972;BME280;37991;49.662;10.060;2022-08-25T07:16:01;99415.97;;;21.49;75.03
51972;BME280;37991;49.662;10.060;2022-08-25T07:18:27;99416.31;;;21.69;76.29
51972;BME280;37991;49.662;10.060;2022-08-25T07:20:52;99414.13;;;21.72;76.76
51972;BME280;37991;49.662;10.060;2022-08-25T07:23:19;99412.41;;;22.02;75.43
51972;BME280;37991;49.662;10.060;2022-08-25T07:25:45;99412.53;;;22.47;74.31
51972;BME280;37991;49.662;10.060;2022-08-25T07:28:12;99411.72;;;23.06;72.01
51972;BME280;37991;49.662;10.060;2022-08-25T07:30:37;99418.09;;;23.05;72.23
51972;BME280;37991;49.662;10.060;2022-08-25T07:33:03;99416.78;;;23.15;71.79
51972;BME280;37991;49.662;10.060;2022-08-25T07:35:28;99406.22;;;23.43;71.08
51972;BME280;37991;49.662;10.060;2022-08-25T07:37:57;99404.97;;;23.61;69.86
51972;BME280;37991;49.662;10.060;2022-08-25T07:40:25;99410.47;;;23.96;68.94
51972;BME280;37991;49.662;10.060;2022-08-25T07:42:54;99405.97;;;24.46;67.55
51972;BME280;37991;49.662;10.060;2022-08-25T07:45:22;99406.69;;;24.61;66.85
51972;BME280;37991;49.662;10.060;2022-08-25T07:50:22;99404.50;;;24.78;65.88
51972;BME280;37991;49.662;10.060;2022-08-25T07:52:48;99403.53;;;24.86;65.98
51972;BME280;37991;49.662;10.060;2022-08-25T07:55:13;99397.81;;;25.43;64.44
51972;BME280;37991;49.662;10.060;2022-08-25T07:57:40;99398.50;;;25.72;63.16
51972;BME280;37991;49.662;10.060;2022-08-25T08:00:07;99398.91;;;25.62;63.46
51972;BME280;37991;49.662;10.060;2022-08-25T08:02:37;99406.31;;;25.60;63.59
51972;BME280;37991;49.662;10.060;2022-08-25T08:05:04;99408.88;;;26.15;62.81
51972;BME280;37991;49.662;10.060;2022-08-25T08:07:29;99406.19;;;26.48;61.77
51972;BME280;37991;49.662;10.060;2022-08-25T08:09:56;99409.50;;;26.24;61.40
51972;BME280;37991;49.662;10.060;2022-08-25T08:12:22;99414.63;;;26.38;61.61
51972;BME280;37991;49.662;10.060;2022-08-25T08:14:48;99422.91;;;26.04;62.09
51972;BME280;37991;49.662;10.060;2022-08-25T08:17:14;99421.47;;;26.21;61.40
51972;BME280;37991;49.662;10.060;2022-08-25T08:19:39;99415.25;;;26.67;60.38
51972;BME280;37991;49.662;10.060;2022-08-25T08:22:05;99408.88;;;26.61;60.74
51972;BME280;37991;49.662;10.060;2022-08-25T08:24:32;99406.19;;;26.28;61.05
51972;BME280;37991;49.662;10.060;2022-08-25T08:27:07;99403.88;;;26.72;60.38
51972;BME280;37991;49.662;10.060;2022-08-25T08:29:34;99404.28;;;26.75;60.54
51972;BME280;37991;49.662;10.060;2022-08-25T08:32:01;99405.19;;;27.21;59.06
51972;BME280;37991;49.662;10.060;2022-08-25T08:34:28;99410.88;;;27.44;58.63
51972;BME280;37991;49.662;10.060;2022-08-25T08:36:54;99402.81;;;27.44;58.75
51972;BME280;37991;49.662;10.060;2022-08-25T08:39:19;99402.75;;;26.99;59.42
51972;BME280;37991;49.662;10.060;2022-08-25T08:50:21;99392.28;;;26.78;60.15
51972;BME280;37991;49.662;10.060;2022-08-25T08:52:53;99398.63;;;27.03;59.52
51972;BME280;37991;49.662;10.060;2022-08-25T08:57:58;99386.78;;;27.56;57.74
51972;BME280;37991;49.662;10.060;2022-08-25T09:00:26;99389.72;;;27.86;57.26
51972;BME280;37991;49.662;10.060;2022-08-25T09:03:10;99383.72;;;27.84;56.96
51972;BME280;37991;49.662;10.060;2022-08-25T09:05:47;99390.03;;;27.65;57.01
51972;BME280;37991;49.662;10.060;2022-08-25T09:08:13;99388.97;;;27.34;57.70
51972;BME280;37991;49.662;10.060;2022-08-25T09:10:53;99379.47;;;27.70;57.35
51972;BME280;37991;49.662;10.060;2022-08-25T09:13:36;99369.88;;;27.80;56.94
51972;BME280;37991;49.662;10.060;2022-08-25T09:16:15;99374.00;;;27.51;57.52
51972;BME280;37991;49.662;10.060;2022-08-25T09:19:13;99366.63;;;27.33;58.12
51972;BME280;37991;49.662;10.060;2022-08-25T09:24:48;99358.84;;;27.12;58.44
51972;BME280;37991;49.662;10.060;2022-08-25T09:27:43;99353.00;;;27.35;57.40
51972;BME280;37991;49.662;10.060;2022-08-25T09:30:18;99359.13;;;27.04;58.38
51972;BME280;37991;49.662;10.060;2022-08-25T09:32:46;99356.00;;;27.13;58.25
51972;BME280;37991;49.662;10.060;2022-08-25T09:35:17;99351.72;;;27.38;57.21
51972;BME280;37991;49.662;10.060;2022-08-25T09:38:02;99343.75;;;27.56;56.54
51972;BME280;37991;49.662;10.060;2022-08-25T09:40:31;99345.88;;;27.79;56.27
51972;BME280;37991;49.662;10.060;2022-08-25T09:43:00;99343.59;;;27.76;55.82
51972;BME280;37991;49.662;10.060;2022-08-25T09:45:36;99333.50;;;27.40;56.32
51972;BME280;37991;49.662;10.060;2022-08-25T09:49:09;99327.44;;;27.19;56.45
51972;BME280;37991;49.662;10.060;2022-08-25T09:51:16;99324.97;;;27.11;57.36
51972;BME280;37991;49.662;10.060;2022-08-25T09:56:19;99305.13;;;27.05;57.73
51972;BME280;37991;49.662;10.060;2022-08-25T09:58:46;99311.38;;;26.99;57.43
51972;BME280;37991;49.662;10.060;2022-08-25T10:03:52;99294.81;;;26.57;58.24
51972;BME280;37991;49.662;10.060;2022-08-25T10:06:18;99294.66;;;26.26;58.80
51972;BME280;37991;49.662;10.060;2022-08-25T10:11:13;99299.44;;;26.04;59.70
51972;BME280;37991;49.662;10.060;2022-08-25T10:13:46;99299.03;;;26.07;59.90
51972;BME280;37991;49.662;10.060;2022-08-25T10:16:24;99297.38;;;26.12;59.83
51972;BME280;37991;49.662;10.060;2022-08-25T10:19:01;99289.31;;;26.19;58.75
51972;BME280;37991;49.662;10.060;2022-08-25T10:21:27;99291.38;;;26.24;59.13
51972;BME280;37991;49.662;10.060;2022-08-25T10:23:53;99279.56;;;26.38;57.96
51972;BME280;37991;49.662;10.060;2022-08-25T10:26:29;99278.09;;;26.55;57.43
51972;BME280;37991;49.662;10.060;2022-08-25T10:32:08;99270.25;;;26.54;56.31
51972;BME280;37991;49.662;10.060;2022-08-25T10:34:47;99265.25;;;26.57;55.55
51972;BME280;37991;49.662;10.060;2022-08-25T10:37:22;99257.88;;;26.39;56.37
51972;BME280;37991;49.662;10.060;2022-08-25T10:40:02;99258.91;;;26.38;56.43
51972;BME280;37991;49.662;10.060;2022-08-25T10:42:35;99251.25;;;26.55;55.77
51972;BME280;37991;49.662;10.060;2022-08-25T10:45:21;99242.09;;;26.63;55.80
51972;BME280;37991;49.662;10.060;2022-08-25T10:54:17;99233.91;;;26.38;55.41
51972;BME280;37991;49.662;10.060;2022-08-25T10:57:11;99229.13;;;26.53;54.76
51972;BME280;37991;49.662;10.060;2022-08-25T10:59:45;99228.88;;;26.68;54.41
51972;BME280;37991;49.662;10.060;2022-08-25T11:07:40;99205.63;;;27.12;54.30
51972;BME280;37991;49.662;10.060;2022-08-25T11:10:13;99201.97;;;27.38;53.41
51972;BME280;37991;49.662;10.060;2022-08-25T11:12:44;99196.78;;;27.36;52.87
51972;BME280;37991;49.662;10.060;2022-08-25T11:15:19;99195.59;;;27.57;52.82
51972;BME280;37991;49.662;10.060;2022-08-25T11:20:33;99190.13;;;27.89;50.89
51972;BME280;37991;49.662;10.060;2022-08-25T11:23:12;99180.84;;;28.03;50.02
51972;BME280;37991;49.662;10.060;2022-08-25T11:25:45;99189.38;;;28.00;49.97
51972;BME280;37991;49.662;10.060;2022-08-25T11:28:20;99189.06;;;27.90;50.00
51972;BME280;37991;49.662;10.060;2022-08-25T11:30:49;99185.84;;;27.81;50.64
51972;BME280;37991;49.662;10.060;2022-08-25T11:33:17;99187.66;;;27.88;50.61
51972;BME280;37991;49.662;10.060;2022-08-25T11:35:55;99185.56;;;27.90;50.05
51972;BME280;37991;49.662;10.060;2022-08-25T11:41:33;99180.75;;;27.92;49.59
51972;BME280;37991;49.662;10.060;2022-08-25T11:47:11;99179.28;;;27.77;49.73
51972;BME280;37991;49.662;10.060;2022-08-25T11:49:50;99175.47;;;27.85;49.86
51972;BME280;37991;49.662;10.060;2022-08-25T11:52:44;99176.81;;;27.94;49.36
51972;BME280;37991;49.662;10.060;2022-08-25T11:55:14;99173.00;;;28.02;49.72
51972;BME280;37991;49.662;10.060;2022-08-25T11:57:41;99171.44;;;28.13;49.38
51972;BME280;37991;49.662;10.060;2022-08-25T12:00:33;99168.94;;;28.29;49.18
51972;BME280;37991;49.662;10.060;2022-08-25T12:06:25;99163.59;;;28.60;47.90
51972;BME280;37991;49.662;10.060;2022-08-25T12:17:16;99167.22;;;28.65;48.44
51972;BME280;37991;49.662;10.060;2022-08-25T12:30:00;99154.19;;;28.32;49.10
51972;BME280;37991;49.662;10.060;2022-08-25T12:32:39;99150.31;;;28.28;49.51
51972;BME280;37991;49.662;10.060;2022-08-25T12:35:15;99139.75;;;28.26;49.40
51972;BME280;37991;49.662;10.060;2022-08-25T12:40:52;99138.22;;;28.19;49.26
51972;BME280;37991;49.662;10.060;2022-08-25T12:45:46;99144.03;;;28.34;49.16
51972;BME280;37991;49.662;10.060;2022-08-25T12:51:05;99142.72;;;28.55;48.06
51972;BME280;37991;49.662;10.060;2022-08-25T13:07:21;99119.22;;;29.39;45.88
51972;BME280;37991;49.662;10.060;2022-08-25T13:15:45;99122.97;;;29.15;46.89
51972;BME280;37991;49.662;10.060;2022-08-25T13:18:21;99116.59;;;28.97;47.33
51972;BME280;37991;49.662;10.060;2022-08-25T13:20:51;99111.31;;;28.91;47.24
51972;BME280;37991;49.662;10.060;2022-08-25T13:23:23;99112.59;;;28.88;47.02
51972;BME280;37991;49.662;10.060;2022-08-25T13:25:50;99112.34;;;28.90;46.80
51972;BME280;37991;49.662;10.060;2022-08-25T13:28:25;99108.25;;;28.76;47.12
51972;BME280;37991;49.662;10.060;2022-08-25T13:30:56;99103.78;;;28.69;47.33
51972;BME280;37991;49.662;10.060;2022-08-25T13:33:22;99106.53;;;28.51;47.81
51972;BME280;37991;49.662;10.060;2022-08-25T13:35:53;99109.13;;;28.39;47.82
51972;BME280;37991;49.662;10.060;2022-08-25T13:38:40;99109.69;;;28.29;48.66
51972;BME280;37991;49.662;10.060;2022-08-25T13:41:06;99096.88;;;28.13;49.46
51972;BME280;37991;49.662;10.060;2022-08-25T13:43:33;99095.97;;;28.19;49.00
51972;BME280;37991;49.662;10.060;2022-08-25T13:45:59;99097.38;;;28.40;48.12
51972;BME280;37991;49.662;10.060;2022-08-25T13:48:41;99092.13;;;28.27;48.79
51972;BME280;37991;49.662;10.060;2022-08-25T13:51:22;99093.06;;;28.21;48.16
51972;BME280;37991;49.662;10.060;2022-08-25T13:53:57;99091.03;;;28.16;48.08
51972;BME280;37991;49.662;10.060;2022-08-25T13:56:32;99088.56;;;28.15;48.38
51972;BME280;37991;49.662;10.060;2022-08-25T13:58:59;99082.75;;;28.29;48.03
51972;BME280;37991;49.662;10.060;2022-08-25T14:01:29;99083.56;;;28.30;48.15
51972;BME280;37991;49.662;10.060;2022-08-25T14:04:23;99078.34;;;28.35;48.27
51972;BME280;37991;49.662;10.060;2022-08-25T14:07:06;99079.84;;;28.49;47.22
51972;BME280;37991;49.662;10.060;2022-08-25T14:09:38;99077.47;;;28.41;47.01
51972;BME280;37991;49.662;10.060;2022-08-25T14:12:04;99084.91;;;28.39;46.42
51972;BME280;37991;49.662;10.060;2022-08-25T14:14:32;99078.28;;;28.42;46.34
51972;BME280;37991;49.662;10.060;2022-08-25T14:17:00;99084.91;;;28.39;47.01
51972;BME280;37991;49.662;10.060;2022-08-25T14:19:27;99085.97;;;28.38;47.33
51972;BME280;37991;49.662;10.060;2022-08-25T14:21:53;99082.22;;;28.39;47.33
51972;BME280;37991;49.662;10.060;2022-08-25T14:24:21;99067.50;;;28.42;46.82
51972;BME280;37991;49.662;10.060;2022-08-25T14:26:47;99065.31;;;28.50;47.12
51972;BME280;37991;49.662;10.060;2022-08-25T14:29:14;99052.34;;;28.59;47.24
51972;BME280;37991;49.662;10.060;2022-08-25T14:31:43;99050.09;;;28.68;47.02
51972;BME280;37991;49.662;10.060;2022-08-25T14:34:13;99055.38;;;28.74;47.02
51972;BME280;37991;49.662;10.060;2022-08-25T14:36:40;99055.88;;;28.83;46.52
51972;BME280;37991;49.662;10.060;2022-08-25T14:39:08;99041.25;;;28.91;46.65
51972;BME280;37991;49.662;10.060;2022-08-25T14:41:35;99040.75;;;28.94;47.70
51972;BME280;37991;49.662;10.060;2022-08-25T14:44:02;99038.06;;;28.94;47.55